Time;durP1;ratioP1;P1;durP2;ratioP2;P2;SDS_P1;SDS_P2;PMS_P1;PMS_P2;Temp;Humidity;BMP_temperature;BMP_pressure;BME280_temperature;BME280_humidity;BME280_pressure;Samples;Min_cycle;Max_cycle;Signal;HPM_P1;HPM_P2
2022/06/18 00:00:27;;;;;;;2.00;0.95;;;25.70;44.70;;;;;;4879162;29;20056;-45
2022/06/18 00:02:53;;;;;;;1.70;1.05;;;25.70;44.70;;;;;;4879793;29;20024;-46
2022/06/18 00:05:21;;;;;;;1.73;1.00;;;25.70;44.80;;;;;;4882226;29;20025;-44
2022/06/18 00:07:53;;;;;;;2.30;1.05;;;25.70;44.70;;;;;;4881877;29;20635;-46
2022/06/18 00:10:24;;;;;;;1.45;0.80;;;25.70;44.80;;;;;;4883291;29;20045;-46
2022/06/18 00:15:38;;;;;;;1.20;0.68;;;25.70;44.80;;;;;;4881891;29;20089;-46
2022/06/18 00:18:10;;;;;;;1.40;0.90;;;25.70;44.70;;;;;;4881129;29;20029;-45
2022/06/18 00:20:39;;;;;;;2.25;1.38;;;25.70;44.80;;;;;;4881085;29;20027;-45
2022/06/18 00:23:13;;;;;;;1.77;0.88;;;25.70;44.80;;;;;;4880763;29;20033;-45
2022/06/18 00:25:42;;;;;;;1.33;0.80;;;25.70;44.80;;;;;;4879551;29;20036;-45
2022/06/18 00:28:22;;;;;;;1.75;0.80;;;25.70;44.80;;;;;;4881498;29;20128;-46
2022/06/18 00:30:50;;;;;;;1.60;1.00;;;25.60;44.80;;;;;;4880504;29;20036;-46
2022/06/18 00:33:15;;;;;;;1.67;0.80;;;25.70;44.80;;;;;;4880881;29;20048;-45
2022/06/18 00:35:42;;;;;;;1.42;0.80;;;25.70;44.80;;;;;;4881250;29;20698;-46
2022/06/18 00:38:14;;;;;;;1.58;0.88;;;25.60;44.70;;;;;;4882074;29;20032;-46
2022/06/18 00:40:42;;;;;;;2.38;1.10;;;25.70;44.80;;;;;;4881168;29;20033;-45
2022/06/18 00:43:31;;;;;;;1.40;0.90;;;25.70;44.70;;;;;;4880986;29;20033;-45
2022/06/18 00:46:11;;;;;;;1.65;1.02;;;25.60;44.70;;;;;;4880483;29;20029;-44
2022/06/18 00:48:42;;;;;;;1.40;0.80;;;25.60;44.70;;;;;;4880372;29;20040;-45
2022/06/18 00:51:40;;;;;;;2.17;0.88;;;25.60;44.70;;;;;;4880756;29;20029;-45
2022/06/18 00:54:19;;;;;;;1.48;0.70;;;25.60;44.70;;;;;;4879762;29;20044;-46
2022/06/18 00:57:21;;;;;;;1.20;0.70;;;25.60;44.60;;;;;;4878802;29;20072;-47
2022/06/18 01:00:12;;;;;;;1.10;0.60;;;25.60;44.70;;;;;;4869542;29;20052;-46
2022/06/18 01:02:42;;;;;;;1.65;0.90;;;25.60;44.70;;;;;;4880438;29;20028;-45
2022/06/18 01:05:27;;;;;;;1.70;0.88;;;25.60;44.60;;;;;;4880627;29;20060;-45
2022/06/18 01:07:58;;;;;;;1.00;0.50;;;25.60;44.60;;;;;;4881988;29;20101;-46
2022/06/18 01:10:37;;;;;;;2.15;0.98;;;25.60;44.70;;;;;;4880643;29;20033;-45
2022/06/18 01:13:07;;;;;;;2.03;0.90;;;25.60;44.70;;;;;;4880613;29;20029;-44
2022/06/18 01:15:33;;;;;;;1.23;0.70;;;25.60;44.70;;;;;;4880518;29;20347;-44
2022/06/18 01:18:00;;;;;;;1.75;0.90;;;25.60;44.70;;;;;;4880999;29;20039;-45
2022/06/18 01:20:26;;;;;;;1.90;0.95;;;25.60;44.70;;;;;;4880597;29;20128;-46
2022/06/18 01:22:55;;;;;;;1.45;0.80;;;25.60;44.70;;;;;;4881065;29;20103;-46
2022/06/18 01:25:23;;;;;;;1.92;0.82;;;25.50;44.70;;;;;;4880243;29;20514;-46
2022/06/18 01:27:49;;;;;;;1.95;0.82;;;25.60;44.70;;;;;;4880026;29;20511;-45
2022/06/18 01:30:18;;;;;;;1.45;0.70;;;25.60;44.80;;;;;;4879819;29;20100;-45
2022/06/18 01:32:45;;;;;;;1.90;1.00;;;25.60;44.80;;;;;;4881154;29;20029;-46
2022/06/18 01:35:12;;;;;;;1.25;0.70;;;25.60;44.70;;;;;;4879795;29;20020;-46
2022/06/18 01:37:38;;;;;;;2.00;0.88;;;25.60;44.70;;;;;;4878827;29;20047;-46
2022/06/18 01:40:06;;;;;;;2.22;0.85;;;25.50;44.70;;;;;;4880055;29;20116;-46
2022/06/18 01:42:47;;;;;;;1.33;0.68;;;25.50;44.70;;;;;;4880020;29;20021;-52
2022/06/18 01:45:21;;;;;;;1.60;0.68;;;25.60;44.70;;;;;;4879296;29;20078;-48
2022/06/18 01:47:55;;;;;;;2.30;0.80;;;25.50;44.70;;;;;;4879641;29;20072;-45
2022/06/18 01:50:30;;;;;;;1.90;0.80;;;25.50;44.70;;;;;;4879753;29;20021;-45
2022/06/18 01:53:29;;;;;;;1.90;0.90;;;25.50;44.60;;;;;;4880462;29;20040;-46
2022/06/18 01:56:02;;;;;;;2.80;1.00;;;25.60;44.70;;;;;;4875937;29;20517;-46
2022/06/18 01:58:41;;;;;;;1.55;0.70;;;25.50;44.60;;;;;;4879366;29;20044;-45
2022/06/18 02:01:15;;;;;;;1.67;0.80;;;25.50;44.60;;;;;;4880846;29;20041;-45
2022/06/18 02:03:41;;;;;;;2.92;0.80;;;25.50;44.60;;;;;;4879678;29;20028;-46
2022/06/18 02:06:08;;;;;;;1.95;0.88;;;25.50;44.60;;;;;;4879704;29;20036;-45
2022/06/18 02:08:34;;;;;;;1.90;0.85;;;25.50;44.60;;;;;;4879986;29;20033;-46
2022/06/18 02:11:03;;;;;;;2.80;0.90;;;25.50;44.50;;;;;;4879194;29;20132;-46
2022/06/18 02:14:02;;;;;;;2.10;0.82;;;25.50;44.60;;;;;;4879498;29;20155;-46
2022/06/18 02:16:30;;;;;;;1.60;0.70;;;25.50;44.50;;;;;;4877208;29;20071;-45
2022/06/18 02:18:59;;;;;;;1.27;0.50;;;25.50;44.50;;;;;;4879045;29;20614;-46
2022/06/18 02:21:25;;;;;;;1.90;0.85;;;25.50;44.50;;;;;;4880492;29;20686;-46
2022/06/18 02:23:55;;;;;;;1.35;0.70;;;25.50;44.60;;;;;;4879551;29;20072;-44
2022/06/18 02:26:24;;;;;;;1.52;0.70;;;25.50;44.50;;;;;;4878586;29;20095;-45
2022/06/18 02:28:53;;;;;;;1.10;0.60;;;25.50;44.50;;;;;;4878248;29;20093;-48
2022/06/18 02:31:23;;;;;;;2.78;0.90;;;25.50;44.50;;;;;;4880335;29;20113;-45
2022/06/18 02:33:53;;;;;;;2.53;0.93;;;25.50;44.40;;;;;;4878744;29;20108;-46
2022/06/18 02:36:23;;;;;;;1.35;0.70;;;25.50;44.40;;;;;;4880086;29;20028;-43
2022/06/18 02:38:56;;;;;;;1.83;0.90;;;25.50;44.40;;;;;;4879900;29;20032;-45
2022/06/18 02:41:22;;;;;;;;;;;25.50;44.40;;;;;;4879881;29;20029;-45
2022/06/18 02:43:48;;;;;;;2.38;0.85;;;25.50;44.40;;;;;;4879134;29;19959;-44
2022/06/18 02:46:15;;;;;;;1.70;0.80;;;25.50;44.30;;;;;;4880413;29;20629;-44
2022/06/18 02:48:41;;;;;;;1.83;0.70;;;25.50;44.20;;;;;;4878612;29;20646;-45
2022/06/18 02:51:11;;;;;;;1.77;0.80;;;25.50;44.30;;;;;;4878744;29;20057;-45
2022/06/18 02:53:36;;;;;;;2.25;0.73;;;25.50;44.20;;;;;;4879254;29;20037;-44
2022/06/18 02:56:06;;;;;;;1.30;0.70;;;25.40;44.20;;;;;;4878545;29;20032;-45
2022/06/18 02:58:36;;;;;;;1.55;0.80;;;25.40;44.20;;;;;;4879219;29;20088;-45
2022/06/18 03:01:07;;;;;;;1.77;0.60;;;25.40;44.20;;;;;;4879538;29;20084;-45
2022/06/18 03:03:38;;;;;;;2.07;0.70;;;25.40;44.10;;;;;;4878757;29;20580;-45
2022/06/18 03:06:05;;;;;;;1.38;0.73;;;25.50;44.10;;;;;;4878639;29;20064;-45
2022/06/18 03:08:31;;;;;;;1.70;0.82;;;25.40;44.20;;;;;;4878996;29;20668;-46
2022/06/18 03:13:43;;;;;;;3.15;0.70;;;25.50;44.10;;;;;;4878399;29;20099;-45
2022/06/18 03:16:11;;;;;;;1.67;0.70;;;25.40;44.10;;;;;;4878360;29;20052;-44
2022/06/18 03:18:39;;;;;;;1.15;0.60;;;25.40;44.20;;;;;;4878718;29;20025;-44
2022/06/18 03:21:22;;;;;;;1.30;0.60;;;25.50;44.20;;;;;;4878406;29;20029;-45
2022/06/18 03:23:48;;;;;;;1.00;0.55;;;25.40;44.10;;;;;;4878494;29;20036;-45
2022/06/18 03:26:16;;;;;;;0.98;0.60;;;25.50;44.10;;;;;;4878176;29;20033;-44
2022/06/18 03:28:42;;;;;;;2.53;0.95;;;25.40;44.20;;;;;;4878505;29;20673;-45
2022/06/18 03:31:08;;;;;;;1.27;0.60;;;25.40;44.20;;;;;;4879182;29;20116;-45
2022/06/18 03:33:34;;;;;;;2.10;0.98;;;25.40;44.10;;;;;;4878051;29;20080;-45
2022/06/18 03:36:02;;;;;;;1.60;0.70;;;25.40;44.10;;;;;;4878394;29;20052;-45
2022/06/18 03:38:28;;;;;;;1.48;0.60;;;25.40;44.10;;;;;;4882215;29;20542;-45
2022/06/18 03:40:54;;;;;;;1.65;0.70;;;25.40;44.10;;;;;;4881704;29;20105;-45
2022/06/18 03:43:21;;;;;;;1.00;0.60;;;25.40;44.00;;;;;;4881925;29;20025;-45
2022/06/18 03:45:50;;;;;;;1.63;0.65;;;25.40;44.10;;;;;;4883030;29;20140;-44
2022/06/18 03:48:39;;;;;;;1.65;0.80;;;25.40;44.00;;;;;;4882034;29;20029;-43
2022/06/18 03:51:05;;;;;;;1.27;0.63;;;25.40;44.00;;;;;;4881852;29;20048;-44
2022/06/18 03:53:31;;;;;;;1.90;0.93;;;25.40;44.00;;;;;;4881636;29;20029;-45
2022/06/18 03:55:56;;;;;;;2.80;0.80;;;25.40;44.00;;;;;;4881493;29;20018;-44
2022/06/18 03:58:22;;;;;;;1.30;0.63;;;25.40;44.00;;;;;;4881487;29;20688;-45
2022/06/18 04:00:50;;;;;;;0.98;0.57;;;25.40;44.00;;;;;;4882386;29;20037;-44
2022/06/18 04:03:16;;;;;;;1.15;0.60;;;25.40;44.00;;;;;;4881740;29;20036;-45
2022/06/18 04:05:43;;;;;;;1.10;0.60;;;25.40;44.10;;;;;;4881313;29;20085;-45
2022/06/18 04:08:13;;;;;;;1.35;0.52;;;25.40;44.10;;;;;;4881741;29;20029;-45
2022/06/18 04:10:40;;;;;;;2.30;0.50;;;25.40;44.20;;;;;;4879649;29;20021;-45
2022/06/18 04:13:07;;;;;;;1.30;0.50;;;25.40;44.20;;;;;;4881244;29;20774;-45
2022/06/18 04:15:33;;;;;;;1.65;0.75;;;25.40;44.10;;;;;;4881220;29;20160;-45
2022/06/18 04:17:58;;;;;;;2.92;1.10;;;25.40;44.10;;;;;;4879764;29;20025;-44
2022/06/18 04:20:31;;;;;;;1.70;0.95;;;25.40;44.10;;;;;;4881590;29;20029;-46
2022/06/18 04:22:57;;;;;;;1.30;0.60;;;25.40;44.20;;;;;;4883145;29;20040;-45
2022/06/18 04:25:23;;;;;;;1.02;0.50;;;25.40;44.80;;;;;;4882429;29;20417;-45
2022/06/18 04:27:49;;;;;;;2.22;1.10;;;25.40;44.20;;;;;;4881507;29;20457;-44
2022/06/18 04:30:17;;;;;;;2.50;0.70;;;25.40;44.10;;;;;;4881208;29;20032;-44
2022/06/18 04:32:43;;;;;;;2.03;0.80;;;25.40;44.20;;;;;;4882726;29;20025;-44
2022/06/18 04:35:11;;;;;;;1.80;0.65;;;25.40;44.20;;;;;;4880488;29;20571;-44
2022/06/18 04:37:38;;;;;;;1.40;0.77;;;25.40;44.20;;;;;;4887360;29;20029;-44
2022/06/18 04:40:05;;;;;;;1.73;0.80;;;25.40;44.30;;;;;;4882116;29;20025;-45
2022/06/18 04:42:30;;;;;;;0.90;0.60;;;25.40;44.30;;;;;;4880399;29;20094;-45
2022/06/18 04:44:56;;;;;;;1.92;0.95;;;25.40;44.30;;;;;;4881983;29;20537;-45
2022/06/18 04:47:22;;;;;;;2.38;0.98;;;25.40;44.30;;;;;;4881097;29;20529;-44
2022/06/18 04:49:48;;;;;;;1.60;0.90;;;25.40;44.40;;;;;;4880516;29;20140;-43
2022/06/18 04:52:14;;;;;;;1.88;0.80;;;25.40;45.10;;;;;;4882881;29;20116;-45
2022/06/18 04:54:39;;;;;;;1.67;0.80;;;25.40;44.40;;;;;;4881315;29;20025;-45
2022/06/18 04:57:05;;;;;;;3.33;1.10;;;25.40;44.40;;;;;;4880331;29;20052;-44
2022/06/18 04:59:31;;;;;;;2.30;1.10;;;25.40;44.40;;;;;;4880310;29;20651;-44
2022/06/18 05:02:05;;;;;;;1.98;1.10;;;25.40;44.50;;;;;;4881030;29;20028;-45
2022/06/18 05:04:31;;;;;;;3.05;1.08;;;25.40;45.20;;;;;;4880587;29;20052;-45
2022/06/18 05:06:57;;;;;;;2.88;1.00;;;25.40;44.50;;;;;;4882187;29;20096;-44
2022/06/18 05:09:23;;;;;;;2.05;1.08;;;25.40;44.50;;;;;;4880232;29;20555;-45
2022/06/18 05:11:49;;;;;;;2.25;1.15;;;25.40;44.50;;;;;;4880459;29;20029;-45
2022/06/18 05:14:15;;;;;;;1.88;0.93;;;25.40;44.50;;;;;;4880413;29;20709;-43
2022/06/18 05:16:42;;;;;;;2.05;0.88;;;25.40;44.50;;;;;;4879995;29;20020;-45
2022/06/18 05:19:23;;;;;;;2.75;1.23;;;25.40;44.50;;;;;;4879977;29;20096;-44
2022/06/18 05:21:49;;;;;;;2.38;1.10;;;25.30;44.60;;;;;;4879783;29;20028;-45
2022/06/18 05:24:14;;;;;;;1.63;0.90;;;25.30;44.60;;;;;;4879962;29;20036;-45
2022/06/18 05:26:43;;;;;;;2.15;1.25;;;25.40;44.60;;;;;;4879809;29;20746;-44
2022/06/18 05:29:10;;;;;;;2.10;1.02;;;25.30;44.60;;;;;;4879767;29;20032;-45
2022/06/18 05:31:36;;;;;;;2.35;1.20;;;25.40;44.70;;;;;;4879520;29;20016;-45
2022/06/18 05:34:03;;;;;;;2.53;1.23;;;25.40;44.60;;;;;;4881113;29;20032;-44
2022/06/18 05:36:29;;;;;;;2.17;1.15;;;25.40;44.70;;;;;;4879378;29;20738;-45
2022/06/18 05:38:57;;;;;;;2.47;1.17;;;25.30;44.70;;;;;;4881496;29;20738;-45
2022/06/18 05:41:23;;;;;;;2.00;1.10;;;25.40;44.70;;;;;;4879880;29;20032;-45
2022/06/18 05:43:49;;;;;;;1.63;0.90;;;25.40;44.70;;;;;;4879885;29;20418;-45
2022/06/18 05:46:16;;;;;;;1.85;1.10;;;25.40;44.70;;;;;;4879190;29;20108;-45
2022/06/18 05:48:42;;;;;;;2.45;1.13;;;25.40;44.70;;;;;;4879463;29;20053;-45
2022/06/18 05:51:08;;;;;;;2.22;1.10;;;25.40;44.80;;;;;;4879403;29;20036;-45
2022/06/18 05:53:34;;;;;;;1.63;1.00;;;25.40;44.80;;;;;;4879970;29;20017;-45
2022/06/18 05:56:00;;;;;;;2.05;1.25;;;25.40;44.80;;;;;;4878728;29;20482;-45
2022/06/18 05:58:26;;;;;;;2.63;1.30;;;25.40;44.80;;;;;;4878841;29;20068;-44
2022/06/18 06:00:51;;;;;;;2.03;1.25;;;25.40;44.80;;;;;;4875072;29;20037;-45
2022/06/18 06:03:17;;;;;;;2.08;0.90;;;25.40;44.90;;;;;;4873164;29;20025;-45
2022/06/18 06:05:43;;;;;;;1.83;1.00;;;25.40;44.90;;;;;;4888406;29;20063;-46
2022/06/18 06:08:12;;;;;;;2.75;1.15;;;25.40;44.90;;;;;;4887830;29;20031;-44
2022/06/18 06:13:24;;;;;;;1.73;0.95;;;25.30;44.90;;;;;;4888781;29;20112;-49
2022/06/18 06:15:51;;;;;;;2.22;1.10;;;25.30;45.00;;;;;;4882553;29;20489;-49
2022/06/18 06:18:19;;;;;;;1.83;1.05;;;25.30;45.00;;;;;;4878447;29;20029;-49
2022/06/18 06:20:48;;;;;;;2.15;1.00;;;25.30;45.10;;;;;;4878426;29;20032;-49
2022/06/18 06:23:14;;;;;;;3.45;1.30;;;25.30;45.20;;;;;;4879155;29;20773;-49
2022/06/18 06:25:42;;;;;;;1.77;0.90;;;25.30;45.30;;;;;;4878867;29;20156;-48
2022/06/18 06:28:17;;;;;;;2.47;1.10;;;25.30;45.30;;;;;;4884903;29;20581;-48
2022/06/18 06:30:42;;;;;;;2.00;1.10;;;25.30;45.40;;;;;;4885580;29;20032;-49
2022/06/18 06:33:08;;;;;;;2.33;1.10;;;25.40;45.50;;;;;;4880613;29;20551;-49
2022/06/18 06:35:34;;;;;;;2.30;1.00;;;25.30;46.00;;;;;;4880662;29;20056;-49
2022/06/18 06:38:02;;;;;;;2.35;1.10;;;25.30;46.20;;;;;;4878632;29;20032;-49
2022/06/18 06:40:28;;;;;;;2.75;1.20;;;25.30;46.40;;;;;;4875491;29;20048;-49
2022/06/18 06:42:56;;;;;;;1.70;0.88;;;25.30;46.60;;;;;;4870891;29;20687;-49
2022/06/18 06:45:28;;;;;;;4.40;1.80;;;25.40;46.60;;;;;;4880046;29;20482;-49
2022/06/18 06:47:54;;;;;;;;;;;25.40;46.90;;;;;;4878295;29;20033;-48
2022/06/18 06:50:22;;;;;;;5.03;1.77;;;25.40;47.10;;;;;;4878149;29;20511;-48
2022/06/18 06:52:49;;;;;;;4.40;2.30;;;25.40;47.40;;;;;;4880367;29;20040;-49
2022/06/18 06:58:20;;;;;;;3.28;1.75;;;25.40;47.40;;;;;;4887366;29;20042;-49
2022/06/18 07:00:49;;;;;;;2.97;1.40;;;25.40;47.30;;;;;;4888210;29;20036;-49
2022/06/18 07:03:18;;;;;;;3.92;1.27;;;25.40;46.80;;;;;;4887510;29;20099;-48
2022/06/18 07:05:45;;;;;;;2.92;1.20;;;25.50;46.90;;;;;;4876656;29;20616;-49
2022/06/18 07:08:12;;;;;;;3.85;1.40;;;25.50;47.00;;;;;;4879646;29;20033;-48
2022/06/18 07:10:38;;;;;;;2.33;1.20;;;25.50;47.00;;;;;;4887026;29;20127;-49
2022/06/18 07:13:04;;;;;;;2.70;1.23;;;25.50;46.80;;;;;;4887422;29;20028;-49
2022/06/18 07:15:30;;;;;;;3.45;1.30;;;25.50;46.70;;;;;;4884717;29;20088;-49
2022/06/18 07:17:58;;;;;;;2.58;1.40;;;25.50;47.30;;;;;;4887400;29;20028;-48
2022/06/18 07:20:24;;;;;;;2.88;1.20;;;25.50;46.60;;;;;;4887529;29;20029;-49
2022/06/18 07:22:50;;;;;;;2.38;1.30;;;25.50;46.50;;;;;;4887314;29;20121;-48
2022/06/18 07:25:16;;;;;;;2.40;1.10;;;25.50;46.60;;;;;;4886908;29;20112;-49
2022/06/18 07:27:43;;;;;;;2.35;1.20;;;25.50;46.50;;;;;;4887345;29;20112;-49
2022/06/18 07:30:11;;;;;;;1.98;1.08;;;25.50;46.30;;;;;;4887798;29;20041;-48
2022/06/18 07:32:43;;;;;;;2.08;1.15;;;25.60;46.40;;;;;;4887880;29;20532;-49
2022/06/18 07:35:19;;;;;;;2.60;1.13;;;25.60;47.20;;;;;;4887706;29;20036;-49
2022/06/18 07:37:44;;;;;;;2.15;1.10;;;25.60;46.10;;;;;;4881900;29;20580;-49
2022/06/18 07:40:11;;;;;;;3.55;1.30;;;25.50;45.80;;;;;;4812463;29;20029;-48
2022/06/18 07:42:37;;;;;;;2.92;1.08;;;25.50;46.50;;;;;;4839841;29;20041;-48
2022/06/18 07:45:05;;;;;;;2.35;1.08;;;25.50;45.00;;;;;;4877179;29;20698;-49
2022/06/18 07:47:30;;;;;;;2.53;1.02;;;25.50;44.30;;;;;;4872866;29;20040;-49
2022/06/18 07:49:56;;;;;;;2.40;1.02;;;25.50;43.40;;;;;;4873145;29;20678;-48
2022/06/18 07:52:22;;;;;;;1.83;1.00;;;25.50;43.20;;;;;;4868875;29;20041;-48
2022/06/18 07:54:48;;;;;;;1.88;1.00;;;25.50;43.00;;;;;;4875082;29;20056;-49
2022/06/18 07:57:13;;;;;;;3.15;1.00;;;25.50;43.80;;;;;;4878546;29;20115;-49
2022/06/18 07:59:39;;;;;;;1.75;1.00;;;25.50;43.40;;;;;;4878054;29;20635;-47
2022/06/18 08:02:07;;;;;;;1.77;0.93;;;25.50;43.10;;;;;;4883813;29;20171;-46
2022/06/18 08:04:33;;;;;;;2.53;1.10;;;25.50;43.00;;;;;;4881276;29;20104;-48
2022/06/18 08:06:58;;;;;;;1.90;0.90;;;25.50;43.80;;;;;;4883931;29;20124;-48
2022/06/18 08:09:24;;;;;;;2.40;1.00;;;25.50;42.80;;;;;;4882819;29;20115;-48
2022/06/18 08:11:50;;;;;;;2.38;1.00;;;25.50;42.80;;;;;;4878544;29;20026;-48
2022/06/18 08:14:16;;;;;;;2.35;1.13;;;25.50;43.60;;;;;;4882526;29;20057;-49
2022/06/18 08:16:44;;;;;;;4.32;1.65;;;25.50;42.60;;;;;;4875362;29;20045;-46
2022/06/18 08:19:10;;;;;;;2.13;1.00;;;25.50;42.20;;;;;;4872525;29;20112;-47
2022/06/18 08:21:44;;;;;;;2.53;1.20;;;25.50;41.20;;;;;;4872574;29;20033;-48
2022/06/18 08:24:17;;;;;;;1.85;1.00;;;25.50;41.70;;;;;;4876930;29;20093;-47
2022/06/18 08:26:44;;;;;;;2.60;1.25;;;25.50;41.70;;;;;;4879606;29;20028;-47
2022/06/18 08:29:15;;;;;;;2.53;1.00;;;25.50;42.70;;;;;;4877704;29;20033;-47
2022/06/18 08:31:46;;;;;;;2.03;1.00;;;25.40;41.80;;;;;;4874277;29;20052;-47
2022/06/18 08:34:12;;;;;;;1.45;0.93;;;25.40;42.50;;;;;;4876256;29;20084;-47
2022/06/18 08:36:39;;;;;;;1.80;0.90;;;25.50;42.70;;;;;;4877117;29;20722;-46
2022/06/18 08:39:06;;;;;;;1.48;0.88;;;25.40;43.50;;;;;;4883181;29;20085;-47
2022/06/18 08:41:44;;;;;;;1.85;0.90;;;25.40;43.30;;;;;;4886028;29;20112;-47
2022/06/18 08:44:31;;;;;;;2.08;1.00;;;25.50;43.40;;;;;;4869322;29;20033;-47
2022/06/18 08:47:16;;;;;;;2.40;1.20;;;25.50;43.50;;;;;;4872234;29;20124;-47
2022/06/18 08:49:54;;;;;;;2.05;0.90;;;25.40;42.30;;;;;;4870191;29;20636;-47
2022/06/18 08:52:48;;;;;;;2.30;1.10;;;25.50;42.70;;;;;;4878153;29;20055;-47
2022/06/18 08:55:31;;;;;;;2.78;0.98;;;25.40;43.20;;;;;;4869967;29;20036;-47
2022/06/18 08:58:24;;;;;;;2.30;1.05;;;25.50;43.30;;;;;;4883832;29;20439;-47
2022/06/18 09:01:18;;;;;;;3.60;1.05;;;25.40;43.10;;;;;;4870479;29;20072;-47
2022/06/18 09:04:00;;;;;;;1.83;0.90;;;25.50;43.40;;;;;;4871011;29;20037;-47
2022/06/18 09:06:46;;;;;;;2.00;1.17;;;25.40;42.40;;;;;;4880837;29;20059;-47
2022/06/18 09:09:21;;;;;;;1.75;0.90;;;25.40;41.30;;;;;;4878595;29;20046;-47
2022/06/18 09:12:06;;;;;;;1.73;1.10;;;25.40;41.70;;;;;;4880785;29;20059;-47
2022/06/18 09:14:33;;;;;;;2.13;1.02;;;25.50;40.90;;;;;;4878279;29;20084;-48
2022/06/18 09:17:14;;;;;;;2.60;1.00;;;25.40;41.80;;;;;;4877114;29;20032;-49
2022/06/18 09:19:44;;;;;;;1.48;0.80;;;25.50;41.80;;;;;;4877210;29;20091;-48
2022/06/18 09:22:17;;;;;;;1.48;0.80;;;25.40;40.40;;;;;;4877339;29;20036;-48
2022/06/18 09:24:46;;;;;;;2.25;0.98;;;25.50;40.90;;;;;;4872213;29;20041;-49
2022/06/18 09:27:19;;;;;;;2.67;1.42;;;25.40;40.20;;;;;;4869750;29;20037;-48
2022/06/18 09:29:52;;;;;;;1.60;0.80;;;25.40;40.60;;;;;;4869124;29;20032;-48
2022/06/18 09:32:53;;;;;;;2.10;0.90;;;25.40;41.60;;;;;;4880579;29;20044;-49
2022/06/18 09:35:29;;;;;;;1.33;0.75;;;25.40;40.30;;;;;;4870379;29;20048;-49
2022/06/18 09:38:01;;;;;;;2.17;1.10;;;25.40;40.60;;;;;;4870295;29;20033;-48
2022/06/18 09:40:35;;;;;;;1.87;0.87;;;25.50;42.30;;;;;;4882944;29;20047;-49
2022/06/18 09:43:08;;;;;;;2.15;1.00;;;25.50;41.50;;;;;;4876105;29;20356;-49
2022/06/18 09:45:43;;;;;;;2.28;0.98;;;25.50;43.40;;;;;;4873907;29;20806;-49
2022/06/18 09:48:09;;;;;;;2.30;1.00;;;25.50;42.00;;;;;;4871822;29;20449;-47
2022/06/18 09:50:43;;;;;;;3.97;1.48;;;25.50;40.90;;;;;;4869021;29;20702;-47
2022/06/18 09:53:25;;;;;;;2.90;1.20;;;25.60;41.40;;;;;;4878171;29;20033;-48
2022/06/18 09:56:05;;;;;;;1.73;1.00;;;25.60;42.20;;;;;;4873854;29;20072;-46
2022/06/18 09:58:55;;;;;;;5.22;1.27;;;25.60;41.40;;;;;;4885281;29;20158;-48
2022/06/18 10:01:37;;;;;;;3.03;1.40;;;25.60;40.90;;;;;;4869879;29;20040;-47
2022/06/18 10:06:52;;;;;;;2.65;1.27;;;25.70;40.10;;;;;;4884435;29;20116;-48
2022/06/18 10:09:44;;;;;;;2.17;1.33;;;25.70;41.50;;;;;;4897135;29;20123;-47
2022/06/18 10:12:22;;;;;;;2.47;1.10;;;25.70;40.50;;;;;;4872663;29;20021;-49
2022/06/18 10:14:58;;;;;;;2.15;1.20;;;25.70;41.90;;;;;;4861019;29;20651;-50
2022/06/18 10:17:55;;;;;;;3.05;1.27;;;25.70;41.70;;;;;;4858331;29;20037;-49
2022/06/18 10:20:39;;;;;;;2.70;1.27;;;25.70;42.40;;;;;;4866162;29;20573;-53
2022/06/18 10:23:09;;;;;;;2.08;1.20;;;25.80;42.90;;;;;;4874334;29;20041;-48
2022/06/18 10:25:56;;;;;;;2.55;1.20;;;25.80;42.10;;;;;;4878764;29;20043;-49
2022/06/18 10:28:58;;;;;;;3.22;1.30;;;25.80;42.80;;;;;;4880107;29;20567;-48
2022/06/18 10:31:37;;;;;;;2.42;1.20;;;25.80;43.40;;;;;;4859431;29;20052;-49
2022/06/18 10:34:34;;;;;;;3.28;1.35;;;25.80;43.60;;;;;;4879251;29;20036;-49
2022/06/18 10:37:29;;;;;;;1.75;1.00;;;25.90;43.50;;;;;;4862155;29;20049;-48
2022/06/18 10:40:06;;;;;;;2.13;1.20;;;25.90;42.20;;;;;;4874676;29;20033;-48
2022/06/18 10:42:43;;;;;;;2.35;1.40;;;25.90;42.90;;;;;;4874866;29;20034;-48
2022/06/18 10:45:17;;;;;;;2.90;1.40;;;25.90;41.00;;;;;;4874480;29;20064;-45
2022/06/18 10:47:46;;;;;;;3.28;1.45;;;26.00;41.50;;;;;;4873664;29;20350;-46
2022/06/18 10:50:16;;;;;;;1.67;1.10;;;25.90;42.00;;;;;;4870710;29;20032;-46
2022/06/18 10:52:43;;;;;;;2.65;1.38;;;25.90;41.10;;;;;;4874023;29;20651;-47
2022/06/18 10:55:20;;;;;;;1.77;0.98;;;26.00;41.90;;;;;;4875476;29;20132;-46
2022/06/18 10:57:48;;;;;;;6.28;2.67;;;26.00;42.80;;;;;;4876998;29;20048;-46
2022/06/18 11:00:26;;;;;;;11.82;3.40;;;26.00;42.70;;;;;;4875929;29;20145;-45
2022/06/18 11:02:55;;;;;;;6.00;1.80;;;26.00;43.40;;;;;;4874391;29;20084;-47
2022/06/18 11:05:44;;;;;;;3.80;1.77;;;26.00;42.60;;;;;;4871856;29;20044;-47
2022/06/18 11:08:40;;;;;;;2.05;1.27;;;26.00;41.80;;;;;;4878310;29;20037;-46
2022/06/18 11:11:08;;;;;;;7.43;2.65;;;26.00;41.90;;;;;;4875074;29;20553;-46
2022/06/18 11:13:35;;;;;;;5.97;2.30;;;26.00;42.70;;;;;;4875537;29;20024;-46
2022/06/18 11:16:24;;;;;;;3.92;1.70;;;26.00;42.80;;;;;;4877373;29;20033;-46
2022/06/18 11:19:02;;;;;;;4.35;1.60;;;26.00;42.40;;;;;;4879388;29;20025;-46
2022/06/18 11:21:39;;;;;;;5.22;1.92;;;26.10;43.00;;;;;;4876695;29;20651;-46
2022/06/18 11:24:11;;;;;;;4.07;1.88;;;26.10;44.20;;;;;;4878312;29;20029;-46
2022/06/18 11:27:02;;;;;;;5.75;1.70;;;26.10;44.20;;;;;;4875520;29;20021;-45
2022/06/18 11:29:47;;;;;;;3.60;2.00;;;26.10;45.00;;;;;;4875258;29;20128;-46
2022/06/18 11:32:21;;;;;;;4.10;1.90;;;26.10;44.50;;;;;;4873363;29;20746;-46
2022/06/18 11:34:51;;;;;;;5.05;1.77;;;26.10;44.50;;;;;;4876195;29;20061;-47
2022/06/18 11:37:25;;;;;;;3.53;1.88;;;26.10;44.80;;;;;;4875055;29;20560;-46
2022/06/18 11:40:16;;;;;;;7.10;2.92;;;26.20;45.90;;;;;;4879424;29;20065;-47
2022/06/18 11:42:49;;;;;;;4.03;1.98;;;26.20;45.80;;;;;;4895051;29;20084;-46
2022/06/18 11:45:42;;;;;;;3.60;1.70;;;26.20;45.80;;;;;;4878815;29;20751;-48
2022/06/18 11:48:16;;;;;;;4.88;2.00;;;26.20;45.30;;;;;;4878238;29;20112;-47
2022/06/18 11:51:02;;;;;;;4.13;2.13;;;26.30;45.70;;;;;;4877579;29;20021;-47
2022/06/18 11:53:39;;;;;;;2.90;1.73;;;26.30;44.90;;;;;;4879091;29;20744;-47
2022/06/18 11:56:20;;;;;;;2.83;1.70;;;26.30;43.80;;;;;;4875559;29;20563;-48
2022/06/18 11:59:16;;;;;;;3.47;1.67;;;26.30;43.80;;;;;;4877532;29;20672;-45
2022/06/18 12:02:12;;;;;;;5.50;2.28;;;26.30;42.60;;;;;;4879700;29;20028;-45
2022/06/18 12:05:23;;;;;;;3.40;1.40;;;26.30;44.40;;;;;;4881275;29;20028;-49
2022/06/18 12:07:54;;;;;;;4.75;2.20;;;26.40;44.00;;;;;;4824456;29;20036;-47
2022/06/18 12:10:45;;;;;;;3.97;2.03;;;26.40;45.30;;;;;;4816339;29;20113;-47
2022/06/18 12:13:32;;;;;;;5.75;2.00;;;26.40;45.50;;;;;;4863198;29;20037;-47
2022/06/18 12:16:10;;;;;;;4.95;2.25;;;26.40;45.40;;;;;;4879058;29;20052;-48
2022/06/18 12:18:49;;;;;;;2.75;1.45;;;26.40;45.30;;;;;;4878025;29;20123;-47
2022/06/18 12:21:21;;;;;;;3.13;1.70;;;26.40;45.20;;;;;;4880633;29;20062;-47
2022/06/18 12:23:46;;;;;;;2.60;1.45;;;26.50;44.40;;;;;;4882201;29;20087;-47
2022/06/18 12:26:40;;;;;;;2.72;1.50;;;26.50;43.50;;;;;;4880714;29;20502;-46
2022/06/18 12:29:34;;;;;;;3.83;1.45;;;26.60;42.40;;;;;;4880556;29;20048;-48
2022/06/18 12:32:11;;;;;;;5.10;1.60;;;26.60;40.00;;;;;;4879033;29;20024;-46
2022/06/18 12:34:53;;;;;;;2.17;1.42;;;26.60;40.50;;;;;;4880994;29;20029;-46
2022/06/18 12:37:41;;;;;;;2.53;1.40;;;26.60;39.20;;;;;;4881680;29;20412;-47
2022/06/18 12:40:17;;;;;;;2.58;1.30;;;26.70;40.80;;;;;;4879181;29;20069;-48
2022/06/18 12:42:46;;;;;;;3.17;1.40;;;26.80;40.50;;;;;;4880882;29;20708;-47
2022/06/18 12:45:34;;;;;;;2.20;1.30;;;26.80;39.20;;;;;;4880581;29;20702;-48
2022/06/18 12:48:16;;;;;;;2.83;1.33;;;26.80;38.40;;;;;;4880370;29;20486;-47
2022/06/18 12:50:57;;;;;;;2.33;1.60;;;26.80;41.00;;;;;;4881108;29;20028;-47
2022/06/18 12:53:35;;;;;;;2.22;1.35;;;26.90;41.60;;;;;;4880833;29;20273;-47
2022/06/18 12:56:24;;;;;;;2.50;1.38;;;26.90;42.00;;;;;;4875422;29;20033;-49
2022/06/18 12:58:57;;;;;;;3.22;1.40;;;26.90;42.50;;;;;;4882351;29;20041;-49
2022/06/18 13:01:43;;;;;;;3.67;1.50;;;26.90;39.00;;;;;;4881779;29;20053;-49
2022/06/18 13:04:21;;;;;;;3.00;1.55;;;26.90;40.90;;;;;;4876847;29;20067;-48
2022/06/18 13:06:56;;;;;;;2.10;1.10;;;27.00;39.30;;;;;;4879268;29;20064;-48
2022/06/18 13:09:34;;;;;;;2.50;1.20;;;27.00;38.60;;;;;;4879688;29;20025;-48
2022/06/18 13:12:18;;;;;;;2.33;1.17;;;27.00;41.40;;;;;;4876373;29;20029;-46
2022/06/18 13:14:49;;;;;;;3.28;1.70;;;27.10;41.30;;;;;;4881276;29;20111;-47
2022/06/18 13:17:26;;;;;;;2.30;1.27;;;27.10;41.70;;;;;;4880139;29;20511;-47
2022/06/18 13:20:11;;;;;;;2.25;1.20;;;27.10;41.20;;;;;;4880889;29;20033;-48
2022/06/18 13:22:38;;;;;;;1.15;0.80;;;27.10;39.80;;;;;;4879089;29;20031;-47
2022/06/18 13:28:29;;;;;;;1.75;1.00;;;27.20;38.30;;;;;;4879811;29;20138;-47
2022/06/18 13:31:23;;;;;;;2.65;0.90;;;27.20;37.40;;;;;;4880053;29;20040;-47
2022/06/18 13:34:01;;;;;;;1.35;0.85;;;27.20;39.50;;;;;;4879234;29;20131;-47